Time;durP1;ratioP1;P1;durP2;ratioP2;P2;SDS_P1;SDS_P2;PMS_P1;PMS_P2;Temp;Humidity;BMP_temperature;BMP_pressure;BME280_temperature;BME280_humidity;BME280_pressure;Samples;Min_cycle;Max_cycle;Signal;HPM_P1;HPM_P2
2022/06/11 00:01:21;;;;;;;;;;;;;;;23.06;54.59;99960.38;4324976;33;19998;-87
2022/06/11 00:03:49;;;;;;;;;;;;;;;23.16;53.91;99961.78;4324998;33;20365;-86
2022/06/11 00:06:16;;;;;;;;;;;;;;;23.08;54.28;99963.84;4325421;33;20298;-86
2022/06/11 00:08:43;;;;;;;;;;;;;;;23.10;54.46;99959.38;4319907;33;20015;-86
2022/06/11 00:11:11;;;;;;;;;;;;;;;23.06;54.17;99957.72;4316973;33;19992;-86
2022/06/11 00:13:38;;;;;;;;;;;;;;;23.11;53.83;99958.44;4336848;32;20425;-86
2022/06/11 00:16:05;;;;;;;;;;;;;;;22.92;54.29;99952.03;4341483;32;19984;-86
2022/06/11 00:18:32;;;;;;;;;;;;;;;23.07;53.86;99948.91;4322955;33;20326;-86
2022/06/11 00:20:59;;;;;;;;;;;;;;;22.98;54.25;99947.44;4318579;33;19992;-86
2022/06/11 00:23:26;;;;;;;;;;;;;;;22.91;54.70;99955.56;4322216;33;20008;-86
2022/06/11 00:25:53;;;;;;;;;;;;;;;23.00;54.15;99955.28;4319762;33;19991;-86
2022/06/11 00:28:20;;;;;;;;;;;;;;;22.69;55.18;99961.56;4313155;33;20000;-86
2022/06/11 00:30:47;;;;;;;;;;;;;;;22.65;55.35;99954.63;4310108;33;19984;-87
2022/06/11 00:33:15;;;;;;;;;;;;;;;22.80;55.16;99947.13;4332747;33;20039;-87
2022/06/11 00:35:42;;;;;;;;;;;;;;;22.81;54.96;99940.94;4310108;33;20047;-87
2022/06/11 00:38:09;;;;;;;;;;;;;;;22.70;55.06;99952.72;4332534;33;19984;-87
2022/06/11 00:40:39;;;;;;;;;;;;;;;22.80;54.68;99957.69;4309640;33;19992;-88
2022/06/11 00:43:06;;;;;;;;;;;;;;;22.84;54.37;99960.19;4311305;33;20043;-87
2022/06/11 00:45:35;;;;;;;;;;;;;;;22.73;54.82;99967.59;4316167;33;20043;-87
2022/06/11 00:48:04;;;;;;;;;;;;;;;22.78;54.92;99970.06;4335531;32;20373;-87
2022/06/11 00:50:40;;;;;;;;;;;;;;;22.77;55.08;99968.34;4347958;32;19998;-88
2022/06/11 00:53:30;;;;;;;;;;;;;;;22.74;55.38;99966.66;4326598;33;19980;-88
2022/06/11 00:55:57;;;;;;;;;;;;;;;22.75;55.11;99961.34;4326385;32;19984;-87
2022/06/11 00:58:26;;;;;;;;;;;;;;;22.81;55.03;99967.34;4349788;32;20004;-87
2022/06/11 01:00:54;;;;;;;;;;;;;;;22.80;54.83;99970.91;4344316;32;19983;-87
2022/06/11 01:03:26;;;;;;;;;;;;;;;22.89;54.46;99967.97;4319548;32;20762;-89
2022/06/11 01:05:59;;;;;;;;;;;;;;;22.82;54.86;99966.44;4335095;33;20040;-88
2022/06/11 01:08:29;;;;;;;;;;;;;;;22.84;54.63;99969.87;4330356;32;19991;-87
2022/06/11 01:11:06;;;;;;;;;;;;;;;22.93;54.29;99959.03;4345587;32;20038;-88
2022/06/11 01:13:35;;;;;;;;;;;;;;;22.62;55.38;99960.03;4341414;32;20326;-89
2022/06/11 01:16:05;;;;;;;;;;;;;;;22.71;55.06;99964.97;4344929;32;19979;-88
2022/06/11 01:18:36;;;;;;;;;;;;;;;22.75;54.75;99961.34;4375298;32;20006;-88
2022/06/11 01:21:22;;;;;;;;;;;;;;;22.57;55.66;99964.56;4377461;32;20049;-88
2022/06/11 01:23:49;;;;;;;;;;;;;;;22.68;55.35;99959.81;4346639;32;19983;-88
2022/06/11 01:26:22;;;;;;;;;;;;;;;22.68;55.11;99959.81;4351043;32;19978;-87
2022/06/11 01:28:51;;;;;;;;;;;;;;;22.75;54.83;99961.34;4364480;32;20000;-86
2022/06/11 01:31:45;;;;;;;;;;;;;;;22.65;55.19;99957.25;4348095;32;20002;-87
2022/06/11 01:34:15;;;;;;;;;;;;;;;22.65;55.43;99959.91;4340692;32;19980;-87
2022/06/11 01:36:43;;;;;;;;;;;;;;;22.57;55.17;99967.22;4341410;32;20043;-89
2022/06/11 01:39:17;;;;;;;;;;;;;;;22.64;55.24;99968.72;4366255;32;20050;-87
2022/06/11 01:41:45;;;;;;;;;;;;;;;22.62;54.39;99970.59;4370659;32;19979;-87
2022/06/11 01:44:23;;;;;;;;;;;;;;;22.59;54.59;99970.69;4347817;32;19991;-87
2022/06/11 01:46:52;;;;;;;;;;;;;;;22.45;55.17;99972.84;4364789;32;19984;-88
2022/06/11 01:49:22;;;;;;;;;;;;;;;22.46;55.42;99974.56;4364197;32;20766;-88
2022/06/11 01:51:54;;;;;;;;;;;;;;;22.43;55.07;99969.38;4341321;33;19988;-86
2022/06/11 01:54:33;;;;;;;;;;;;;;;22.53;55.20;99976.13;4349338;32;20018;-87
2022/06/11 01:57:03;;;;;;;;;;;;;;;22.60;54.66;99977.66;4340207;32;20035;-87
2022/06/11 01:59:53;;;;;;;;;;;;;;;22.50;55.13;99978.87;4341096;32;19979;-87
2022/06/11 02:02:23;;;;;;;;;;;;;;;22.29;55.59;99978.59;4340140;32;19983;-86
2022/06/11 02:05:05;;;;;;;;;;;;;;;22.57;54.56;99980.41;4341032;32;20313;-89
2022/06/11 02:07:34;;;;;;;;;;;;;;;22.45;54.84;99986.06;4363843;32;20043;-87
2022/06/11 02:10:04;;;;;;;;;;;;;;;22.55;54.60;99984.84;4369667;32;20049;-87
2022/06/11 02:12:33;;;;;;;;;;;;;;;22.51;54.57;99983.22;4366056;32;20010;-89
2022/06/11 02:15:00;;;;;;;;;;;;;;;22.43;55.26;99985.22;4371680;32;20505;-88
2022/06/11 02:17:34;;;;;;;;;;;;;;;22.56;54.58;99991.88;4341076;32;20043;-87
2022/06/11 02:20:04;;;;;;;;;;;;;;;22.50;55.14;99986.78;4365493;32;19995;-88
2022/06/11 02:22:36;;;;;;;;;;;;;;;22.62;54.70;99986.41;4371969;32;20001;-86
2022/06/11 02:25:29;;;;;;;;;;;;;;;22.46;55.16;99987.75;4375248;32;20055;-86
2022/06/11 02:27:58;;;;;;;;;;;;;;;22.24;55.78;99993.72;4345540;32;19980;-85
2022/06/11 02:30:26;;;;;;;;;;;;;;;22.38;55.35;99987.16;4366478;32;19987;-86
2022/06/11 02:32:53;;;;;;;;;;;;;;;22.32;55.18;99988.19;4372542;32;20047;-86
2022/06/11 02:35:40;;;;;;;;;;;;;;;22.39;54.97;99996.78;4353193;32;20030;-86
2022/06/11 02:38:09;;;;;;;;;;;;;;;22.27;55.28;99996.25;4364296;32;19979;-87
2022/06/11 02:40:48;;;;;;;;;;;;;;;22.33;55.03;99994.31;4364170;32;20590;-87
2022/06/11 02:43:15;;;;;;;;;;;;;;;22.23;55.39;100004.28;4375481;32;19983;-86
2022/06/11 02:45:42;;;;;;;;;;;;;;;22.18;55.80;100000.94;4347049;32;19971;-86
2022/06/11 02:48:09;;;;;;;;;;;;;;;22.12;55.77;100001.94;4355230;32;20002;-88
2022/06/11 02:50:35;;;;;;;;;;;;;;;21.96;56.01;100001.50;4355491;32;19967;-86
2022/06/11 02:53:05;;;;;;;;;;;;;;;21.67;56.93;100014.63;4355660;32;19987;-87
2022/06/11 02:55:33;;;;;;;;;;;;;;;20.99;58.91;100002.25;4378406;32;20365;-88
2022/06/11 02:58:00;;;;;;;;;;;;;;;21.67;56.78;100004.94;4355706;32;20051;-86
2022/06/11 03:00:28;;;;;;;;;;;;;;;21.91;55.72;100002.53;4350833;32;19975;-87
2022/06/11 03:02:55;;;;;;;;;;;;;;;21.97;55.23;100012.91;4346955;32;20018;-87
2022/06/11 03:05:24;;;;;;;;;;;;;;;22.09;55.52;100007.28;4364108;32;19964;-87
2022/06/11 03:07:51;;;;;;;;;;;;;;;21.85;56.32;100007.97;4340209;32;19991;-87
2022/06/11 03:10:19;;;;;;;;;;;;;;;21.99;55.94;100009.31;4343112;32;19983;-87
2022/06/11 03:12:46;;;;;;;;;;;;;;;21.90;56.55;100011.34;4345738;32;20340;-86
2022/06/11 03:15:13;;;;;;;;;;;;;;;21.28;57.84;99997.16;4339131;32;19986;-86
2022/06/11 03:17:41;;;;;;;;;;;;;;;20.78;59.33;100001.84;4340152;33;19976;-86
2022/06/11 03:20:08;;;;;;;;;;;;;;;20.44;60.59;100002.56;4341097;32;19991;-87
2022/06/11 03:22:35;;;;;;;;;;;;;;;20.22;61.37;100011.81;4342372;32;20325;-87
2022/06/11 03:25:02;;;;;;;;;;;;;;;20.60;60.14;99999.63;4365732;32;19991;-86
2022/06/11 03:27:29;;;;;;;;;;;;;;;19.74;62.89;99998.75;4348713;32;19997;-88
2022/06/11 03:29:56;;;;;;;;;;;;;;;20.03;62.19;100005.19;4347379;32;20038;-87
2022/06/11 03:32:23;;;;;;;;;;;;;;;19.87;62.67;100025.66;4340619;33;19987;-85
2022/06/11 03:34:51;;;;;;;;;;;;;;;20.07;62.08;100025.25;4340486;32;19967;-87
2022/06/11 03:37:19;;;;;;;;;;;;;;;20.60;60.24;100033.84;4340292;33;20298;-87
2022/06/11 03:39:45;;;;;;;;;;;;;;;21.00;59.06;100038.22;4340402;32;20010;-87
2022/06/11 03:42:13;;;;;;;;;;;;;;;21.23;58.65;100045.56;4339854;33;19983;-87
2022/06/11 03:44:40;;;;;;;;;;;;;;;21.47;58.11;100041.47;4340197;32;20010;-86
2022/06/11 03:47:07;;;;;;;;;;;;;;;21.48;58.27;100040.56;4340009;33;19988;-87
2022/06/11 03:49:34;;;;;;;;;;;;;;;21.59;57.61;100039.38;4342063;32;19998;-86
2022/06/11 03:52:01;;;;;;;;;;;;;;;21.61;57.51;100026.19;4346332;32;20026;-85
2022/06/11 03:54:28;;;;;;;;;;;;;;;21.73;57.43;100030.22;4340152;32;20007;-85
2022/06/11 03:56:55;;;;;;;;;;;;;;;21.62;57.82;100027.03;4341355;32;19987;-87
2022/06/11 03:59:22;;;;;;;;;;;;;;;21.62;57.56;100032.31;4369601;32;20710;-86
2022/06/11 04:01:49;;;;;;;;;;;;;;;21.81;57.09;100034.41;4363019;32;19997;-86
2022/06/11 04:04:16;;;;;;;;;;;;;;;21.90;57.11;100029.81;4348218;32;19979;-87
2022/06/11 04:06:48;;;;;;;;;;;;;;;21.98;56.87;100035.72;4343279;32;19998;-86
2022/06/11 04:09:17;;;;;;;;;;;;;;;21.99;56.99;100037.47;4343859;32;20004;-87
2022/06/11 04:11:45;;;;;;;;;;;;;;;22.11;56.41;100037.09;4343654;32;19996;-85
2022/06/11 04:14:12;;;;;;;;;;;;;;;22.15;56.73;100038.75;4363233;32;20051;-86
2022/06/11 04:16:47;;;;;;;;;;;;;;;22.03;57.41;100033.81;4347456;32;20023;-86
2022/06/11 04:19:16;;;;;;;;;;;;;;;22.23;56.82;100036.78;4340030;32;20022;-86
2022/06/11 04:21:43;;;;;;;;;;;;;;;22.21;57.13;100038.62;4366017;32;20034;-87
2022/06/11 04:24:10;;;;;;;;;;;;;;;22.24;56.57;100035.03;4344631;32;20601;-87
2022/06/11 04:26:39;;;;;;;;;;;;;;;22.28;56.72;100037.53;4348526;32;19987;-86
2022/06/11 04:29:06;;;;;;;;;;;;;;;22.26;56.94;100034.06;4350087;32;20332;-86
2022/06/11 04:31:33;;;;;;;;;;;;;;;21.85;58.06;100024.63;4343826;32;20363;-86
2022/06/11 04:34:08;;;;;;;;;;;;;;;22.39;55.81;100031.06;4346613;32;20053;-85
2022/06/11 04:36:35;;;;;;;;;;;;;;;21.90;57.88;100037.72;4366506;32;20001;-87
2022/06/11 04:39:02;;;;;;;;;;;;;;;22.36;56.21;100036.44;4351577;32;19979;-87
2022/06/11 04:41:29;;;;;;;;;;;;;;;22.60;55.65;100035.72;4341430;32;19988;-86
2022/06/11 04:43:56;;;;;;;;;;;;;;;22.47;55.87;100039.63;4354576;32;19978;-86
2022/06/11 04:46:23;;;;;;;;;;;;;;;22.58;55.48;100031.41;4347662;32;19999;-86
2022/06/11 04:48:50;;;;;;;;;;;;;;;22.69;55.34;100038.09;4341291;32;19983;-86
2022/06/11 04:51:17;;;;;;;;;;;;;;;22.77;55.63;100034.34;4341380;32;20456;-86
2022/06/11 04:53:44;;;;;;;;;;;;;;;22.97;54.57;100039.88;4343187;32;19995;-87
2022/06/11 04:56:15;;;;;;;;;;;;;;;23.03;54.90;100050.25;4348042;32;20392;-87
2022/06/11 04:58:42;;;;;;;;;;;;;;;23.17;54.02;100055.97;4341094;32;20465;-86
2022/06/11 05:01:08;;;;;;;;;;;;;;;23.12;54.76;100049.09;4341393;32;19998;-88
2022/06/11 05:03:36;;;;;;;;;;;;;;;23.06;54.98;100050.16;4343446;32;20010;-88
2022/06/11 05:06:03;;;;;;;;;;;;;;;23.18;54.43;100055.03;4347646;32;20004;-88
2022/06/11 05:08:31;;;;;;;;;;;;;;;23.16;54.60;100051.56;4343120;32;19984;-84
2022/06/11 05:10:58;;;;;;;;;;;;;;;23.13;54.90;100056.97;4347576;32;19979;-86
2022/06/11 05:13:25;;;;;;;;;;;;;;;23.07;55.41;100062.47;4345596;32;19979;-88
2022/06/11 05:15:52;;;;;;;;;;;;;;;23.08;55.63;100064.19;4344776;32;19975;-87
2022/06/11 05:18:20;;;;;;;;;;;;;;;23.26;54.58;100062.72;4364229;32;20329;-87
2022/06/11 05:20:47;;;;;;;;;;;;;;;23.27;54.53;100074.16;4348051;32;19979;-85
2022/06/11 05:23:14;;;;;;;;;;;;;;;23.26;54.28;100078.59;4341712;32;20031;-87
2022/06/11 05:25:42;;;;;;;;;;;;;;;23.25;54.56;100075.97;4344810;32;20034;-88
2022/06/11 05:28:12;;;;;;;;;;;;;;;23.30;54.33;100074.06;4350840;32;20309;-85
2022/06/11 05:30:39;;;;;;;;;;;;;;;23.32;54.41;100078.34;4365702;32;19995;-86
2022/06/11 05:33:06;;;;;;;;;;;;;;;23.45;54.20;100076.19;4330185;32;20750;-86
2022/06/11 05:35:34;;;;;;;;;;;;;;;23.39;54.48;100069.34;4343210;32;19983;-85
2022/06/11 05:38:03;;;;;;;;;;;;;;;23.31;54.76;100081.06;4357645;32;20046;-92
2022/06/11 05:40:31;;;;;;;;;;;;;;;23.43;54.67;100080.66;4365900;32;19979;-93
2022/06/11 05:42:58;;;;;;;;;;;;;;;23.35;55.42;100082.69;4344986;32;19999;-94
2022/06/11 05:45:27;;;;;;;;;;;;;;;23.47;54.85;100086.72;4350862;32;19997;-95
2022/06/11 05:47:55;;;;;;;;;;;;;;;23.52;54.44;100085.66;4377394;32;20042;-96
2022/06/11 05:50:23;;;;;;;;;;;;;;;23.39;55.17;100086.97;4345680;32;20022;-90
2022/06/11 05:52:50;;;;;;;;;;;;;;;23.31;54.99;100081.06;4340747;32;19986;-93
2022/06/11 05:55:19;;;;;;;;;;;;;;;23.58;54.46;100081.91;4349256;32;19987;-89
2022/06/11 05:57:47;;;;;;;;;;;;;;;23.53;54.56;100087.38;4341149;32;20321;-92
2022/06/11 06:00:15;;;;;;;;;;;;;;;23.60;54.29;100083.59;4364381;32;19997;-92
2022/06/11 06:02:44;;;;;;;;;;;;;;;23.55;54.53;100093.47;4371861;32;19971;-93
2022/06/11 06:05:13;;;;;;;;;;;;;;;23.61;54.57;100098.56;4341183;32;19986;-91
2022/06/11 06:07:39;;;;;;;;;;;;;;;23.64;54.63;100090.53;4366019;32;20026;-93
2022/06/11 06:10:10;;;;;;;;;;;;;;;23.79;54.17;100089.16;4347526;32;20037;-92
2022/06/11 06:12:37;;;;;;;;;;;;;;;23.73;54.69;100088.50;4342778;32;20035;-95
2022/06/11 06:15:05;;;;;;;;;;;;;;;23.83;54.30;100097.84;4342975;32;20029;-94
2022/06/11 06:17:32;;;;;;;;;;;;;;;24.39;53.62;100092.34;4364257;32;20045;-91
2022/06/11 06:19:59;;;;;;;;;;;;;;;24.53;52.48;100087.41;4342744;32;20010;-91
2022/06/11 06:22:26;;;;;;;;;;;;;;;24.98;50.91;100094.53;4347194;32;20330;-92
2022/06/11 06:24:53;;;;;;;;;;;;;;;25.25;50.42;100092.59;4344237;32;20001;-92
2022/06/11 06:27:20;;;;;;;;;;;;;;;25.33;50.98;100084.31;4347254;32;20411;-87
2022/06/11 06:29:47;;;;;;;;;;;;;;;25.70;49.28;100075.69;4330951;32;19984;-88
2022/06/11 06:32:23;;;;;;;;;;;;;;;25.73;50.27;100077.37;4340951;32;19994;-91
2022/06/11 06:34:50;;;;;;;;;;;;;;;26.11;48.80;100074.87;4360375;32;19987;-92
2022/06/11 06:37:17;;;;;;;;;;;;;;;26.34;47.26;100074.69;4333695;33;20377;-89
2022/06/11 06:39:44;;;;;;;;;;;;;;;26.45;47.34;100076.84;4332055;33;20046;-91
2022/06/11 06:42:11;;;;;;;;;;;;;;;26.47;48.09;100080.31;4329615;33;20833;-89
2022/06/11 06:44:38;;;;;;;;;;;;;;;26.71;46.52;100067.75;4340208;33;19996;-90
2022/06/11 06:47:05;;;;;;;;;;;;;;;27.08;45.70;100081.91;4363681;32;20001;-89
2022/06/11 06:49:33;;;;;;;;;;;;;;;26.85;47.98;100080.34;4338437;32;20034;-91
2022/06/11 06:52:00;;;;;;;;;;;;;;;27.04;46.82;100081.19;4355762;32;19976;-91
2022/06/11 06:54:27;;;;;;;;;;;;;;;27.37;44.50;100089.34;4336764;32;20340;-92
2022/06/11 06:56:54;;;;;;;;;;;;;;;27.70;43.48;100085.94;4344775;32;20380;-90
2022/06/11 06:59:22;;;;;;;;;;;;;;;27.62;45.27;100088.13;4340849;32;19997;-89
2022/06/11 07:01:49;;;;;;;;;;;;;;;27.90;44.12;100092.94;4363561;32;19983;-88
2022/06/11 07:04:16;;;;;;;;;;;;;;;28.19;42.42;100093.22;4330259;32;20046;-90
2022/06/11 07:06:52;;;;;;;;;;;;;;;28.12;43.00;100091.84;4347513;32;19990;-91
2022/06/11 07:09:19;;;;;;;;;;;;;;;27.85;44.84;100088.78;4363827;32;20063;-91
2022/06/11 07:11:45;;;;;;;;;;;;;;;27.76;44.93;100090.97;4338580;33;20424;-90
2022/06/11 07:14:12;;;;;;;;;;;;;;;28.24;42.95;100092.03;4342232;32;19980;-89
2022/06/11 07:16:42;;;;;;;;;;;;;;;28.51;41.94;100083.53;4346435;32;19983;-88
2022/06/11 07:19:11;;;;;;;;;;;;;;;28.53;41.91;100087.00;4363926;32;19979;-89
2022/06/11 07:21:47;;;;;;;;;;;;;;;28.04;45.56;100090.41;4366966;32;20511;-94
2022/06/11 07:24:15;;;;;;;;;;;;;;;28.63;42.64;100093.53;4367579;32;20317;-96
2022/06/11 07:26:43;;;;;;;;;;;;;;;28.72;43.47;100081.50;4349194;32;19987;-94
2022/06/11 07:29:11;;;;;;;;;;;;;;;28.91;41.85;100081.34;4355805;32;20052;-94
2022/06/11 07:31:39;;;;;;;;;;;;;;;28.76;42.57;100076.88;4371094;32;19979;-94
2022/06/11 07:34:06;;;;;;;;;;;;;;;29.27;40.86;100082.91;4364014;32;20039;-90
2022/06/11 07:36:33;;;;;;;;;;;;;;;29.28;40.79;100084.59;4340564;32;20313;-96
2022/06/11 07:39:00;;;;;;;;;;;;;;;28.87;43.04;100080.63;4345991;32;19979;-92
2022/06/11 07:41:27;;;;;;;;;;;;;;;28.98;42.69;100082.72;4343700;32;19980;-93
2022/06/11 07:43:55;;;;;;;;;;;;;;;29.77;38.81;100084.41;4345633;32;19976;-95
2022/06/11 07:46:22;;;;;;;;;;;;;;;29.60;38.94;100086.28;4348733;32;19976;-91
2022/06/11 07:48:49;;;;;;;;;;;;;;;29.52;39.95;100083.19;4351222;32;20023;-94
2022/06/11 07:51:19;;;;;;;;;;;;;;;29.08;41.51;100077.75;4340571;32;20028;-93
2022/06/11 07:53:46;;;;;;;;;;;;;;;29.49;42.48;100077.19;4366796;32;20038;-93
2022/06/11 07:56:13;;;;;;;;;;;;;;;29.41;42.64;100081.13;4348132;32;19971;-90
2022/06/11 07:58:40;;;;;;;;;;;;;;;29.40;41.49;100078.56;4373470;32;20872;-93
2022/06/11 08:01:07;;;;;;;;;;;;;;;29.44;40.20;100080.09;4051284;32;10000312;-92
2022/06/11 08:03:37;;;;;;;;;;;;;;;29.50;41.38;100085.06;4355337;32;19994;-93
2022/06/11 08:06:05;;;;;;;;;;;;;;;29.90;39.33;100082.75;4349388;32;20353;-89
2022/06/11 08:08:32;;;;;;;;;;;;;;;29.68;40.71;100087.66;4342805;32;19975;-93
2022/06/11 08:11:00;;;;;;;;;;;;;;;30.03;40.06;100083.72;4342409;32;20028;-93
2022/06/11 08:13:26;;;;;;;;;;;;;;;30.22;38.79;100093.31;4342222;32;19972;-93
2022/06/11 08:15:53;;;;;;;;;;;;;;;30.10;39.83;100089.53;4342411;32;19993;-93
2022/06/11 08:18:21;;;;;;;;;;;;;;;30.24;39.14;100080.72;4376025;32;20042;-93
2022/06/11 08:20:49;;;;;;;;;;;;;;;30.47;38.04;100081.94;4342220;32;19979;-91
2022/06/11 08:23:17;;;;;;;;;;;;;;;30.78;36.72;100086.25;4342092;32;20039;-90
2022/06/11 08:25:44;;;;;;;;;;;;;;;30.91;37.07;100080.97;4370778;32;20444;-94
2022/06/11 08:28:12;;;;;;;;;;;;;;;30.57;38.49;100081.28;4376772;32;20078;-92
2022/06/11 08:30:39;;;;;;;;;;;;;;;31.10;36.40;100078.81;4356998;32;20394;-93
2022/06/11 08:33:06;;;;;;;;;;;;;;;30.70;37.95;100078.69;4358009;32;20318;-92
2022/06/11 08:35:34;;;;;;;;;;;;;;;31.16;36.89;100081.09;4358069;32;19983;-95
2022/06/11 08:38:01;;;;;;;;;;;;;;;31.23;36.19;100085.06;4380075;32;19979;-93
2022/06/11 08:40:35;;;;;;;;;;;;;;;30.85;41.78;100079.53;4358013;32;19952;-92
2022/06/11 08:43:20;;;;;;;;;;;;;;;30.81;38.00;100065.53;4376840;32;19983;-92
2022/06/11 08:45:49;;;;;;;;;;;;;;;30.76;38.44;100077.41;4343369;32;19972;-94
2022/06/11 08:48:21;;;;;;;;;;;;;;;30.61;41.06;100075.75;4344638;32;19980;-94
2022/06/11 08:50:55;;;;;;;;;;;;;;;31.09;38.00;100073.56;4369056;32;19987;-95
2022/06/11 08:53:22;;;;;;;;;;;;;;;31.34;36.69;100076.38;4372702;32;20043;-94
2022/06/11 08:55:50;;;;;;;;;;;;;;;31.33;37.66;100073.75;4367408;32;20557;-95
2022/06/11 08:58:16;;;;;;;;;;;;;;;31.18;40.27;100075.66;4347867;32;20021;-93
2022/06/11 09:01:22;;;;;;;;;;;;;;;31.00;39.58;100064.34;4345717;32;20089;-93
2022/06/11 09:03:49;;;;;;;;;;;;;;;31.42;36.28;100071.34;4309640;33;19992;-93
2022/06/11 09:06:33;;;;;;;;;;;;;;;31.26;39.41;100066.12;4324291;33;20810;-94
2022/06/11 09:09:07;;;;;;;;;;;;;;;31.58;36.35;100054.28;4342946;32;19995;-93
2022/06/11 09:11:44;;;;;;;;;;;;;;;31.49;38.04;100064.66;4373884;32;19995;-94
2022/06/11 09:14:20;;;;;;;;;;;;;;;31.49;37.96;100064.66;4379891;32;20387;-93
2022/06/11 09:16:57;;;;;;;;;;;;;;;31.43;37.04;100070.41;4355845;32;19993;-92
2022/06/11 09:19:42;;;;;;;;;;;;;;;31.69;35.38;100067.81;4345285;32;19976;-92
2022/06/11 09:22:27;;;;;;;;;;;;;;;31.32;38.44;100064.88;4345921;32;20375;-94
2022/06/11 09:25:07;;;;;;;;;;;;;;;32.07;35.25;100066.97;4355467;32;20399;-94
2022/06/11 09:27:33;;;;;;;;;;;;;;;31.19;36.35;100069.34;4371991;32;19984;-93
2022/06/11 09:30:03;;;;;;;;;;;;;;;31.74;36.97;100061.16;4343007;32;20041;-95
2022/06/11 09:32:36;;;;;;;;;;;;;;;31.61;35.74;100060.28;4348944;32;20014;-94
2022/06/11 09:35:23;;;;;;;;;;;;;;;31.84;34.13;100055.16;4343424;32;20022;-95
2022/06/11 09:37:56;;;;;;;;;;;;;;;31.89;33.22;100053.91;4346059;32;19987;-92
2022/06/11 09:40:23;;;;;;;;;;;;;;;31.57;35.79;100052.56;4342364;32;20018;-94
2022/06/11 09:43:06;;;;;;;;;;;;;;;31.61;36.21;100051.38;4345879;32;20034;-93
2022/06/11 09:45:46;;;;;;;;;;;;;;;31.38;37.03;100059.16;4366899;32;19984;-92
2022/06/11 09:48:19;;;;;;;;;;;;;;;31.55;36.29;100041.94;4341792;32;19984;-92
2022/06/11 09:51:03;;;;;;;;;;;;;;;31.79;36.33;100044.78;4341999;32;19983;-93
2022/06/11 09:53:39;;;;;;;;;;;;;;;32.16;34.39;100044.91;4372342;32;20002;-92
2022/06/11 09:56:25;;;;;;;;;;;;;;;31.92;34.76;100043.00;4345489;32;19997;-92
2022/06/11 09:58:55;;;;;;;;;;;;;;;31.79;35.21;100042.09;4345212;32;20789;-93
2022/06/11 10:01:31;;;;;;;;;;;;;;;31.73;34.75;100038.03;4349293;32;20030;-93
2022/06/11 10:04:00;;;;;;;;;;;;;;;31.16;38.11;100053.50;4378304;32;20329;-92
2022/06/11 10:06:29;;;;;;;;;;;;;;;30.62;38.93;100032.88;4356465;32;19987;-93
2022/06/11 10:09:00;;;;;;;;;;;;;;;31.00;36.46;100053.63;4374963;32;20409;-92
2022/06/11 10:11:33;;;;;;;;;;;;;;;30.66;37.17;100060.25;4370677;32;20030;-91
2022/06/11 10:16:49;;;;;;;;;;;;;;;30.15;38.83;100050.06;4360331;32;19971;-92
2022/06/11 10:19:22;;;;;;;;;;;;;;;30.20;38.06;100045.34;4352034;32;20419;-91
2022/06/11 10:22:00;;;;;;;;;;;;;;;30.30;36.82;100042.94;4341343;32;19980;-92
2022/06/11 10:24:27;;;;;;;;;;;;;;;29.84;38.46;100040.41;4347852;32;20385;-91
2022/06/11 10:26:56;;;;;;;;;;;;;;;29.91;38.49;100039.09;4371123;32;20014;-90
2022/06/11 10:29:28;;;;;;;;;;;;;;;29.82;38.89;100032.50;4378078;32;20019;-90
2022/06/11 10:31:59;;;;;;;;;;;;;;;30.04;37.14;100034.72;4372053;32;20438;-91
2022/06/11 10:34:26;;;;;;;;;;;;;;;30.07;37.12;100037.19;4377805;32;20590;-90
2022/06/11 10:36:53;;;;;;;;;;;;;;;29.81;37.42;100040.59;4349675;32;20054;-92
2022/06/11 10:39:39;;;;;;;;;;;;;;;29.57;38.49;100025.06;4354917;32;19987;-91
2022/06/11 10:42:12;;;;;;;;;;;;;;;29.69;37.81;100028.00;4344936;32;20014;-91
2022/06/11 10:44:44;;;;;;;;;;;;;;;29.52;39.58;100029.84;4341262;32;20050;-91
2022/06/11 10:47:16;;;;;;;;;;;;;;;29.40;38.84;100035.88;4340889;32;20055;-92
2022/06/11 10:49:43;;;;;;;;;;;;;;;29.68;36.80;100028.97;4370660;32;20042;-91
2022/06/11 10:52:29;;;;;;;;;;;;;;;29.43;37.98;100035.72;4355699;32;19979;-91
2022/06/11 10:54:56;;;;;;;;;;;;;;;29.34;37.74;100033.59;4349219;32;20357;-90
2022/06/11 10:57:25;;;;;;;;;;;;;;;29.47;39.01;100031.06;4340799;32;19976;-90
2022/06/11 11:00:14;;;;;;;;;;;;;;;29.78;36.65;100035.44;4365295;32;19979;-90
2022/06/11 11:02:46;;;;;;;;;;;;;;;29.68;37.20;100034.28;4370573;32;20045;-90
2022/06/11 11:05:14;;;;;;;;;;;;;;;29.34;37.76;100030.91;4372087;32;19997;-90
2022/06/11 11:07:57;;;;;;;;;;;;;;;29.20;39.23;100029.91;4364023;32;20042;-91
2022/06/11 11:10:36;;;;;;;;;;;;;;;29.07;40.46;100023.59;4365794;32;20005;-89
2022/06/11 11:13:07;;;;;;;;;;;;;;;28.75;41.59;100022.72;4349840;32;19991;-92
2022/06/11 11:15:53;;;;;;;;;;;;;;;29.06;39.11;100027.19;4353700;32;20021;-91
2022/06/11 11:18:24;;;;;;;;;;;;;;;29.02;39.07;100030.97;4347156;32;19980;-91
2022/06/11 11:20:53;;;;;;;;;;;;;;;28.80;39.86;100027.78;4364573;32;19998;-90
2022/06/11 11:23:21;;;;;;;;;;;;;;;28.65;40.01;100017.03;4363843;32;19991;-90
2022/06/11 11:25:48;;;;;;;;;;;;;;;29.34;37.83;100020.25;4367753;32;19983;-84
2022/06/11 11:28:37;;;;;;;;;;;;;;;29.57;40.02;100010.88;4353210;32;19986;-91
2022/06/11 11:31:06;;;;;;;;;;;;;;;29.72;37.80;100015.31;4368244;32;19979;-92
2022/06/11 11:33:35;;;;;;;;;;;;;;;30.23;36.00;100017.59;4367241;32;20004;-91
2022/06/11 11:36:17;;;;;;;;;;;;;;;30.16;35.09;100003.72;4339187;32;20001;-92
2022/06/11 11:38:44;;;;;;;;;;;;;;;30.19;34.81;100000.00;4365782;32;21032;-90
2022/06/11 11:41:21;;;;;;;;;;;;;;;30.28;35.74;100002.09;4369900;32;19992;-90
2022/06/11 11:43:49;;;;;;;;;;;;;;;30.45;35.81;99993.91;4340211;32;20001;-90
2022/06/11 11:46:20;;;;;;;;;;;;;;;30.62;35.46;99997.28;4319988;32;797821;-90
2022/06/11 11:48:48;;;;;;;;;;;;;;;30.45;35.30;99993.91;4369299;32;20391;-89
2022/06/11 11:51:19;;;;;;;;;;;;;;;30.83;34.76;99995.94;4340463;32;19979;-89
2022/06/11 11:53:47;;;;;;;;;;;;;;;30.37;37.43;99990.84;4341859;32;20046;-92
2022/06/11 11:56:22;;;;;;;;;;;;;;;30.55;35.01;99989.66;4369921;32;20014;-90
2022/06/11 11:58:54;;;;;;;;;;;;;;;30.23;38.48;99989.06;4363471;32;19984;-91
2022/06/11 12:01:22;;;;;;;;;;;;;;;30.61;34.74;99987.56;4364773;32;20344;-91
2022/06/11 12:03:52;;;;;;;;;;;;;;;30.53;35.52;99991.56;4369578;32;19994;-90
2022/06/11 12:06:28;;;;;;;;;;;;;;;30.75;34.51;99987.50;4363143;32;20790;-91
2022/06/11 12:08:55;;;;;;;;;;;;;;;30.61;35.24;99982.22;4363575;32;19979;-93
2022/06/11 12:11:25;;;;;;;;;;;;;;;30.90;34.79;99983.88;4339886;32;19975;-91
2022/06/11 12:13:53;;;;;;;;;;;;;;;31.10;33.26;99985.22;4339568;32;19984;-88
2022/06/11 12:16:31;;;;;;;;;;;;;;;30.99;34.52;99983.28;4341102;32;20034;-89
2022/06/11 12:19:02;;;;;;;;;;;;;;;31.18;32.71;99982.03;4344990;32;19976;-90
2022/06/11 12:21:31;;;;;;;;;;;;;;;31.04;33.11;99981.13;4365906;32;20039;-89
2022/06/11 12:24:02;;;;;;;;;;;;;;;30.84;32.58;99976.25;4362932;32;19992;-91
2022/06/11 12:26:37;;;;;;;;;;;;;;;30.73;31.93;99981.44;4371623;32;19975;-92
2022/06/11 12:29:07;;;;;;;;;;;;;;;30.49;33.46;99984.72;4339971;32;20408;-90
2022/06/11 12:31:34;;;;;;;;;;;;;;;30.29;33.84;99982.47;4339848;32;19979;-91
2022/06/11 12:34:04;;;;;;;;;;;;;;;30.53;34.00;99980.88;4340468;32;20002;-90
2022/06/11 12:36:46;;;;;;;;;;;;;;;30.16;35.06;99981.50;4341451;32;20030;-91
2022/06/11 12:39:13;;;;;;;;;;;;;;;30.36;35.04;99978.44;4373227;32;19975;-88
2022/06/11 12:41:40;;;;;;;;;;;;;;;30.78;34.17;99982.00;4354205;32;19975;-92
2022/06/11 12:44:27;;;;;;;;;;;;;;;30.58;35.45;99977.94;4355135;32;19987;-91
2022/06/11 12:46:59;;;;;;;;;;;;;;;30.49;34.49;99974.03;4371222;32;20250;-91
2022/06/11 12:49:29;;;;;;;;;;;;;;;30.71;33.67;99978.00;4365309;32;19987;-88
2022/06/11 12:51:59;;;;;;;;;;;;;;;30.86;33.70;99977.03;4052037;32;10000329;-91
2022/06/11 12:54:45;;;;;;;;;;;;;;;31.00;34.25;99968.94;4341983;32;20000;-90
2022/06/11 12:57:15;;;;;;;;;;;;;;;31.18;33.96;99966.00;4371337;32;20337;-89
2022/06/11 12:59:57;;;;;;;;;;;;;;;31.12;33.21;99963.72;4341426;32;20079;-89